sensor_id;sensor_type;location;lat;lon;timestamp;P1;durP1;ratioP1;P2;durP2;ratioP2
16385;SDS011;8302;51.154;4.456;2022-12-18T00:01:26;11.90;;;5.07;;
16385;SDS011;8302;51.154;4.456;2022-12-18T00:03:54;8.32;;;4.63;;
16385;SDS011;8302;51.154;4.456;2022-12-18T00:06:23;6.07;;;4.13;;
16385;SDS011;8302;51.154;4.456;2022-12-18T00:08:51;10.95;;;5.55;;
16385;SDS011;8302;51.154;4.456;2022-12-18T00:11:19;9.20;;;5.07;;
16385;SDS011;8302;51.154;4.456;2022-12-18T00:13:49;10.52;;;5.03;;
16385;SDS011;8302;51.154;4.456;2022-12-18T00:16:19;10.88;;;4.88;;
16385;SDS011;8302;51.154;4.456;2022-12-18T00:18:49;14.05;;;6.28;;
16385;SDS011;8302;51.154;4.456;2022-12-18T00:21:18;11.85;;;5.20;;
16385;SDS011;8302;51.154;4.456;2022-12-18T00:23:47;10.70;;;5.97;;
16385;SDS011;8302;51.154;4.456;2022-12-18T00:26:16;8.00;;;4.45;;
16385;SDS011;8302;51.154;4.456;2022-12-18T00:28:45;12.20;;;5.80;;
16385;SDS011;8302;51.154;4.456;2022-12-18T00:31:14;11.43;;;6.15;;
16385;SDS011;8302;51.154;4.456;2022-12-18T00:33:44;10.80;;;5.72;;
16385;SDS011;8302;51.154;4.456;2022-12-18T00:36:14;10.02;;;5.78;;
16385;SDS011;8302;51.154;4.456;2022-12-18T00:38:42;10.00;;;5.38;;
16385;SDS011;8302;51.154;4.456;2022-12-18T00:41:11;11.32;;;5.80;;
16385;SDS011;8302;51.154;4.456;2022-12-18T00:43:39;10.25;;;5.63;;
16385;SDS011;8302;51.154;4.456;2022-12-18T00:46:07;12.65;;;5.90;;
16385;SDS011;8302;51.154;4.456;2022-12-18T00:48:35;13.63;;;6.32;;
16385;SDS011;8302;51.154;4.456;2022-12-18T00:51:05;12.05;;;6.53;;
16385;SDS011;8302;51.154;4.456;2022-12-18T00:53:35;10.20;;;5.93;;
16385;SDS011;8302;51.154;4.456;2022-12-18T00:56:04;8.60;;;4.82;;
16385;SDS011;8302;51.154;4.456;2022-12-18T00:58:31;11.20;;;5.65;;
16385;SDS011;8302;51.154;4.456;2022-12-18T01:01:03;13.63;;;6.60;;
16385;SDS011;8302;51.154;4.456;2022-12-18T01:03:33;13.38;;;6.38;;
16385;SDS011;8302;51.154;4.456;2022-12-18T01:06:06;14.27;;;6.45;;
16385;SDS011;8302;51.154;4.456;2022-12-18T01:08:35;16.33;;;6.05;;
16385;SDS011;8302;51.154;4.456;2022-12-18T01:11:06;13.75;;;5.75;;
16385;SDS011;8302;51.154;4.456;2022-12-18T01:13:34;13.00;;;6.38;;
16385;SDS011;8302;51.154;4.456;2022-12-18T01:16:04;9.95;;;5.25;;
16385;SDS011;8302;51.154;4.456;2022-12-18T01:18:34;13.23;;;5.75;;
16385;SDS011;8302;51.154;4.456;2022-12-18T01:21:05;13.15;;;6.72;;
16385;SDS011;8302;51.154;4.456;2022-12-18T01:23:37;12.07;;;5.97;;
16385;SDS011;8302;51.154;4.456;2022-12-18T01:26:06;15.07;;;6.60;;
16385;SDS011;8302;51.154;4.456;2022-12-18T01:28:35;12.13;;;5.85;;
16385;SDS011;8302;51.154;4.456;2022-12-18T01:31:10;10.93;;;5.35;;
16385;SDS011;8302;51.154;4.456;2022-12-18T01:33:38;13.20;;;7.07;;
16385;SDS011;8302;51.154;4.456;2022-12-18T01:36:07;13.35;;;6.38;;
16385;SDS011;8302;51.154;4.456;2022-12-18T01:38:36;9.75;;;5.65;;
16385;SDS011;8302;51.154;4.456;2022-12-18T01:41:04;13.18;;;5.50;;
16385;SDS011;8302;51.154;4.456;2022-12-18T01:43:47;12.27;;;6.30;;
16385;SDS011;8302;51.154;4.456;2022-12-18T01:46:17;9.88;;;6.07;;
16385;SDS011;8302;51.154;4.456;2022-12-18T01:48:46;14.35;;;7.03;;
16385;SDS011;8302;51.154;4.456;2022-12-18T01:51:15;14.40;;;6.15;;
16385;SDS011;8302;51.154;4.456;2022-12-18T01:53:45;12.30;;;6.50;;
16385;SDS011;8302;51.154;4.456;2022-12-18T01:56:14;14.68;;;6.60;;
16385;SDS011;8302;51.154;4.456;2022-12-18T01:58:46;15.48;;;6.97;;
16385;SDS011;8302;51.154;4.456;2022-12-18T02:01:16;11.23;;;5.78;;
16385;SDS011;8302;51.154;4.456;2022-12-18T02:03:44;11.77;;;5.95;;
16385;SDS011;8302;51.154;4.456;2022-12-18T02:06:15;9.65;;;6.22;;
16385;SDS011;8302;51.154;4.456;2022-12-18T02:08:49;15.93;;;6.78;;
16385;SDS011;8302;51.154;4.456;2022-12-18T02:11:23;15.65;;;6.20;;
16385;SDS011;8302;51.154;4.456;2022-12-18T02:13:53;13.27;;;6.30;;
16385;SDS011;8302;51.154;4.456;2022-12-18T02:16:23;12.77;;;7.25;;
16385;SDS011;8302;51.154;4.456;2022-12-18T02:18:53;12.07;;;6.25;;
16385;SDS011;8302;51.154;4.456;2022-12-18T02:21:26;8.90;;;5.20;;
16385;SDS011;8302;51.154;4.456;2022-12-18T02:24:00;15.30;;;5.55;;
16385;SDS011;8302;51.154;4.456;2022-12-18T02:26:34;12.57;;;5.65;;
16385;SDS011;8302;51.154;4.456;2022-12-18T02:29:06;12.20;;;5.22;;
16385;SDS011;8302;51.154;4.456;2022-12-18T02:31:36;17.80;;;7.13;;
16385;SDS011;8302;51.154;4.456;2022-12-18T02:34:06;14.70;;;6.18;;
16385;SDS011;8302;51.154;4.456;2022-12-18T02:36:38;8.55;;;5.60;;
16385;SDS011;8302;51.154;4.456;2022-12-18T02:39:07;9.95;;;5.80;;
16385;SDS011;8302;51.154;4.456;2022-12-18T02:41:43;11.95;;;5.15;;
16385;SDS011;8302;51.154;4.456;2022-12-18T02:44:13;10.32;;;6.40;;
16385;SDS011;8302;51.154;4.456;2022-12-18T02:46:42;14.40;;;6.78;;
16385;SDS011;8302;51.154;4.456;2022-12-18T02:49:19;12.00;;;5.75;;
16385;SDS011;8302;51.154;4.456;2022-12-18T02:51:50;14.25;;;6.63;;
16385;SDS011;8302;51.154;4.456;2022-12-18T02:54:26;12.80;;;6.70;;
16385;SDS011;8302;51.154;4.456;2022-12-18T02:57:00;9.30;;;5.63;;
16385;SDS011;8302;51.154;4.456;2022-12-18T02:59:32;11.98;;;6.63;;
16385;SDS011;8302;51.154;4.456;2022-12-18T03:02:04;10.57;;;6.30;;
16385;SDS011;8302;51.154;4.456;2022-12-18T03:04:36;13.02;;;7.07;;
16385;SDS011;8302;51.154;4.456;2022-12-18T03:07:08;10.38;;;5.50;;
16385;SDS011;8302;51.154;4.456;2022-12-18T03:09:38;10.68;;;6.63;;
16385;SDS011;8302;51.154;4.456;2022-12-18T03:12:12;13.02;;;5.80;;
16385;SDS011;8302;51.154;4.456;2022-12-18T03:14:55;9.02;;;5.78;;
16385;SDS011;8302;51.154;4.456;2022-12-18T03:17:26;12.48;;;6.18;;
16385;SDS011;8302;51.154;4.456;2022-12-18T03:19:55;9.55;;;5.80;;
16385;SDS011;8302;51.154;4.456;2022-12-18T03:22:25;13.10;;;5.55;;
16385;SDS011;8302;51.154;4.456;2022-12-18T03:24:55;11.13;;;5.65;;
16385;SDS011;8302;51.154;4.456;2022-12-18T03:27:26;13.18;;;5.75;;
16385;SDS011;8302;51.154;4.456;2022-12-18T03:30:00;10.40;;;5.93;;
16385;SDS011;8302;51.154;4.456;2022-12-18T03:32:36;14.38;;;5.65;;
16385;SDS011;8302;51.154;4.456;2022-12-18T03:35:07;12.35;;;6.20;;
16385;SDS011;8302;51.154;4.456;2022-12-18T03:37:36;12.57;;;5.30;;
16385;SDS011;8302;51.154;4.456;2022-12-18T03:40:06;11.00;;;6.72;;
16385;SDS011;8302;51.154;4.456;2022-12-18T03:42:39;10.13;;;5.30;;
16385;SDS011;8302;51.154;4.456;2022-12-18T03:45:11;12.48;;;5.18;;
16385;SDS011;8302;51.154;4.456;2022-12-18T03:47:44;8.70;;;5.35;;
16385;SDS011;8302;51.154;4.456;2022-12-18T03:50:20;12.18;;;5.05;;
16385;SDS011;8302;51.154;4.456;2022-12-18T03:52:51;15.10;;;5.88;;
16385;SDS011;8302;51.154;4.456;2022-12-18T03:55:21;9.38;;;4.93;;
16385;SDS011;8302;51.154;4.456;2022-12-18T03:57:58;9.55;;;6.03;;
16385;SDS011;8302;51.154;4.456;2022-12-18T04:00:35;10.75;;;5.45;;
16385;SDS011;8302;51.154;4.456;2022-12-18T04:03:07;11.05;;;5.57;;
16385;SDS011;8302;51.154;4.456;2022-12-18T04:05:43;11.80;;;6.10;;
16385;SDS011;8302;51.154;4.456;2022-12-18T04:08:13;10.75;;;5.25;;
16385;SDS011;8302;51.154;4.456;2022-12-18T04:10:48;9.27;;;5.78;;
16385;SDS011;8302;51.154;4.456;2022-12-18T04:13:23;7.55;;;5.10;;
16385;SDS011;8302;51.154;4.456;2022-12-18T04:15:51;11.48;;;6.25;;
16385;SDS011;8302;51.154;4.456;2022-12-18T04:18:20;9.25;;;5.00;;
16385;SDS011;8302;51.154;4.456;2022-12-18T04:20:49;7.65;;;4.85;;
16385;SDS011;8302;51.154;4.456;2022-12-18T04:23:17;11.98;;;5.32;;
16385;SDS011;8302;51.154;4.456;2022-12-18T04:25:46;9.52;;;5.03;;
16385;SDS011;8302;51.154;4.456;2022-12-18T04:28:23;11.60;;;5.47;;
16385;SDS011;8302;51.154;4.456;2022-12-18T04:30:51;11.27;;;5.18;;
16385;SDS011;8302;51.154;4.456;2022-12-18T04:33:21;11.13;;;5.00;;
16385;SDS011;8302;51.154;4.456;2022-12-18T04:35:49;12.63;;;5.72;;
16385;SDS011;8302;51.154;4.456;2022-12-18T04:38:17;8.40;;;4.53;;
16385;SDS011;8302;51.154;4.456;2022-12-18T04:40:50;8.27;;;4.22;;
16385;SDS011;8302;51.154;4.456;2022-12-18T04:43:25;12.05;;;4.95;;
16385;SDS011;8302;51.154;4.456;2022-12-18T04:45:53;10.52;;;5.10;;
16385;SDS011;8302;51.154;4.456;2022-12-18T04:48:28;8.95;;;4.60;;
16385;SDS011;8302;51.154;4.456;2022-12-18T04:50:56;9.15;;;5.40;;
16385;SDS011;8302;51.154;4.456;2022-12-18T04:53:24;7.40;;;4.88;;
16385;SDS011;8302;51.154;4.456;2022-12-18T04:56:01;6.80;;;4.15;;
16385;SDS011;8302;51.154;4.456;2022-12-18T04:58:30;12.38;;;5.32;;
16385;SDS011;8302;51.154;4.456;2022-12-18T05:00:58;7.93;;;4.53;;
16385;SDS011;8302;51.154;4.456;2022-12-18T05:03:26;7.72;;;4.22;;
16385;SDS011;8302;51.154;4.456;2022-12-18T05:05:54;5.75;;;4.35;;
16385;SDS011;8302;51.154;4.456;2022-12-18T05:08:22;7.78;;;4.45;;
16385;SDS011;8302;51.154;4.456;2022-12-18T05:10:57;6.18;;;4.05;;
16385;SDS011;8302;51.154;4.456;2022-12-18T05:13:25;8.98;;;5.40;;
16385;SDS011;8302;51.154;4.456;2022-12-18T05:15:55;11.02;;;4.35;;
16385;SDS011;8302;51.154;4.456;2022-12-18T05:18:23;8.68;;;4.68;;
16385;SDS011;8302;51.154;4.456;2022-12-18T05:20:52;10.80;;;4.15;;
16385;SDS011;8302;51.154;4.456;2022-12-18T05:23:20;6.72;;;4.63;;
16385;SDS011;8302;51.154;4.456;2022-12-18T05:25:50;10.02;;;4.50;;
16385;SDS011;8302;51.154;4.456;2022-12-18T05:28:18;8.98;;;4.35;;
16385;SDS011;8302;51.154;4.456;2022-12-18T05:30:47;10.63;;;4.72;;
16385;SDS011;8302;51.154;4.456;2022-12-18T05:33:17;6.35;;;4.47;;
16385;SDS011;8302;51.154;4.456;2022-12-18T05:35:49;9.13;;;5.35;;
16385;SDS011;8302;51.154;4.456;2022-12-18T05:38:17;10.18;;;4.22;;
16385;SDS011;8302;51.154;4.456;2022-12-18T05:40:46;9.18;;;4.55;;
16385;SDS011;8302;51.154;4.456;2022-12-18T05:43:14;11.55;;;5.22;;
16385;SDS011;8302;51.154;4.456;2022-12-18T05:45:47;10.95;;;4.40;;
16385;SDS011;8302;51.154;4.456;2022-12-18T05:48:17;6.80;;;4.63;;
16385;SDS011;8302;51.154;4.456;2022-12-18T05:50:46;8.02;;;4.65;;
16385;SDS011;8302;51.154;4.456;2022-12-18T05:53:14;8.32;;;4.45;;
16385;SDS011;8302;51.154;4.456;2022-12-18T05:55:42;9.70;;;4.50;;
16385;SDS011;8302;51.154;4.456;2022-12-18T05:58:11;7.05;;;3.95;;
16385;SDS011;8302;51.154;4.456;2022-12-18T06:00:41;8.25;;;4.47;;
16385;SDS011;8302;51.154;4.456;2022-12-18T06:03:09;7.90;;;4.38;;
16385;SDS011;8302;51.154;4.456;2022-12-18T06:05:40;8.98;;;4.22;;
16385;SDS011;8302;51.154;4.456;2022-12-18T06:08:08;7.90;;;3.97;;
16385;SDS011;8302;51.154;4.456;2022-12-18T06:10:37;11.68;;;4.65;;
16385;SDS011;8302;51.154;4.456;2022-12-18T06:13:05;9.00;;;4.40;;
16385;SDS011;8302;51.154;4.456;2022-12-18T06:15:35;7.75;;;4.25;;
16385;SDS011;8302;51.154;4.456;2022-12-18T06:18:03;7.95;;;4.35;;
16385;SDS011;8302;51.154;4.456;2022-12-18T06:20:32;7.65;;;3.85;;
16385;SDS011;8302;51.154;4.456;2022-12-18T06:23:01;7.47;;;4.55;;
16385;SDS011;8302;51.154;4.456;2022-12-18T06:25:29;9.02;;;4.68;;
16385;SDS011;8302;51.154;4.456;2022-12-18T06:27:57;7.55;;;4.63;;
16385;SDS011;8302;51.154;4.456;2022-12-18T06:30:25;6.93;;;4.53;;
16385;SDS011;8302;51.154;4.456;2022-12-18T06:32:53;11.35;;;4.85;;
16385;SDS011;8302;51.154;4.456;2022-12-18T06:35:22;6.00;;;3.72;;
16385;SDS011;8302;51.154;4.456;2022-12-18T06:37:50;5.38;;;4.28;;
16385;SDS011;8302;51.154;4.456;2022-12-18T06:40:20;7.22;;;4.43;;
16385;SDS011;8302;51.154;4.456;2022-12-18T06:42:47;6.55;;;4.00;;
16385;SDS011;8302;51.154;4.456;2022-12-18T06:45:16;8.00;;;3.70;;
16385;SDS011;8302;51.154;4.456;2022-12-18T06:47:44;6.93;;;4.05;;
16385;SDS011;8302;51.154;4.456;2022-12-18T06:50:12;8.07;;;4.10;;
16385;SDS011;8302;51.154;4.456;2022-12-18T06:52:40;7.97;;;4.20;;
16385;SDS011;8302;51.154;4.456;2022-12-18T06:55:10;7.68;;;4.22;;
16385;SDS011;8302;51.154;4.456;2022-12-18T06:57:40;10.93;;;4.80;;
16385;SDS011;8302;51.154;4.456;2022-12-18T07:00:08;6.82;;;3.65;;
16385;SDS011;8302;51.154;4.456;2022-12-18T07:02:36;10.27;;;4.97;;
16385;SDS011;8302;51.154;4.456;2022-12-18T07:05:04;5.57;;;3.70;;
16385;SDS011;8302;51.154;4.456;2022-12-18T07:07:36;7.90;;;4.38;;
16385;SDS011;8302;51.154;4.456;2022-12-18T07:10:04;8.50;;;4.97;;
16385;SDS011;8302;51.154;4.456;2022-12-18T07:12:33;5.80;;;3.70;;
16385;SDS011;8302;51.154;4.456;2022-12-18T07:15:02;7.55;;;4.15;;
16385;SDS011;8302;51.154;4.456;2022-12-18T07:17:30;8.32;;;4.13;;
16385;SDS011;8302;51.154;4.456;2022-12-18T07:19:58;7.22;;;4.50;;
16385;SDS011;8302;51.154;4.456;2022-12-18T07:22:27;7.47;;;4.30;;
16385;SDS011;8302;51.154;4.456;2022-12-18T07:24:55;9.65;;;3.92;;
16385;SDS011;8302;51.154;4.456;2022-12-18T07:27:23;8.82;;;4.30;;
16385;SDS011;8302;51.154;4.456;2022-12-18T07:29:51;6.47;;;3.85;;
16385;SDS011;8302;51.154;4.456;2022-12-18T07:32:20;5.82;;;3.95;;
16385;SDS011;8302;51.154;4.456;2022-12-18T07:34:48;6.20;;;3.63;;
16385;SDS011;8302;51.154;4.456;2022-12-18T07:37:16;8.20;;;4.13;;
16385;SDS011;8302;51.154;4.456;2022-12-18T07:39:44;7.57;;;3.50;;
16385;SDS011;8302;51.154;4.456;2022-12-18T07:42:15;7.35;;;4.25;;
16385;SDS011;8302;51.154;4.456;2022-12-18T07:44:58;7.95;;;3.85;;
16385;SDS011;8302;51.154;4.456;2022-12-18T07:47:28;7.30;;;3.97;;
16385;SDS011;8302;51.154;4.456;2022-12-18T07:49:56;7.13;;;3.78;;
16385;SDS011;8302;51.154;4.456;2022-12-18T07:52:24;6.05;;;3.38;;
16385;SDS011;8302;51.154;4.456;2022-12-18T07:54:52;8.82;;;4.55;;
16385;SDS011;8302;51.154;4.456;2022-12-18T07:57:20;5.32;;;3.40;;
16385;SDS011;8302;51.154;4.456;2022-12-18T08:00:08;8.30;;;4.20;;
16385;SDS011;8302;51.154;4.456;2022-12-18T08:02:40;6.35;;;4.22;;
16385;SDS011;8302;51.154;4.456;2022-12-18T08:05:09;6.03;;;3.80;;
16385;SDS011;8302;51.154;4.456;2022-12-18T08:07:37;6.65;;;3.28;;
16385;SDS011;8302;51.154;4.456;2022-12-18T08:10:05;8.23;;;4.13;;
16385;SDS011;8302;51.154;4.456;2022-12-18T08:12:33;8.63;;;3.75;;
16385;SDS011;8302;51.154;4.456;2022-12-18T08:15:01;7.18;;;3.28;;
16385;SDS011;8302;51.154;4.456;2022-12-18T08:17:30;8.07;;;3.80;;
16385;SDS011;8302;51.154;4.456;2022-12-18T08:19:59;6.95;;;3.90;;
16385;SDS011;8302;51.154;4.456;2022-12-18T08:22:27;4.95;;;3.42;;
16385;SDS011;8302;51.154;4.456;2022-12-18T08:24:55;7.00;;;3.92;;
16385;SDS011;8302;51.154;4.456;2022-12-18T08:27:23;7.05;;;4.10;;
16385;SDS011;8302;51.154;4.456;2022-12-18T08:29:55;7.80;;;3.80;;
16385;SDS011;8302;51.154;4.456;2022-12-18T08:32:23;5.65;;;4.10;;
16385;SDS011;8302;51.154;4.456;2022-12-18T08:34:51;5.50;;;3.10;;
16385;SDS011;8302;51.154;4.456;2022-12-18T08:37:21;5.78;;;3.25;;
16385;SDS011;8302;51.154;4.456;2022-12-18T08:39:49;6.50;;;3.83;;
16385;SDS011;8302;51.154;4.456;2022-12-18T08:42:16;7.72;;;3.35;;
16385;SDS011;8302;51.154;4.456;2022-12-18T08:45:02;5.57;;;3.75;;
16385;SDS011;8302;51.154;4.456;2022-12-18T08:47:30;5.05;;;3.90;;
16385;SDS011;8302;51.154;4.456;2022-12-18T08:49:58;7.45;;;3.10;;
16385;SDS011;8302;51.154;4.456;2022-12-18T08:52:28;7.47;;;3.45;;
16385;SDS011;8302;51.154;4.456;2022-12-18T08:54:55;7.43;;;4.10;;
16385;SDS011;8302;51.154;4.456;2022-12-18T08:57:23;7.80;;;3.97;;
16385;SDS011;8302;51.154;4.456;2022-12-18T08:59:51;8.70;;;3.92;;
16385;SDS011;8302;51.154;4.456;2022-12-18T09:02:19;4.68;;;2.80;;
16385;SDS011;8302;51.154;4.456;2022-12-18T09:04:47;6.45;;;3.20;;
16385;SDS011;8302;51.154;4.456;2022-12-18T09:07:22;6.05;;;3.90;;
16385;SDS011;8302;51.154;4.456;2022-12-18T09:09:51;6.75;;;3.83;;
16385;SDS011;8302;51.154;4.456;2022-12-18T09:12:19;6.70;;;4.00;;
16385;SDS011;8302;51.154;4.456;2022-12-18T09:14:47;6.32;;;3.42;;
16385;SDS011;8302;51.154;4.456;2022-12-18T09:17:15;4.75;;;2.97;;
16385;SDS011;8302;51.154;4.456;2022-12-18T09:19:43;5.18;;;3.47;;
16385;SDS011;8302;51.154;4.456;2022-12-18T09:22:11;3.63;;;2.97;;
16385;SDS011;8302;51.154;4.456;2022-12-18T09:24:39;6.03;;;3.20;;
16385;SDS011;8302;51.154;4.456;2022-12-18T09:27:08;5.30;;;3.00;;
16385;SDS011;8302;51.154;4.456;2022-12-18T09:29:36;5.72;;;3.58;;
16385;SDS011;8302;51.154;4.456;2022-12-18T09:32:04;4.97;;;3.33;;
16385;SDS011;8302;51.154;4.456;2022-12-18T09:34:33;6.85;;;3.78;;
16385;SDS011;8302;51.154;4.456;2022-12-18T09:37:01;6.32;;;3.78;;
16385;SDS011;8302;51.154;4.456;2022-12-18T09:39:29;8.45;;;3.65;;
16385;SDS011;8302;51.154;4.456;2022-12-18T09:41:57;4.63;;;3.20;;
16385;SDS011;8302;51.154;4.456;2022-12-18T09:44:27;6.30;;;3.70;;
16385;SDS011;8302;51.154;4.456;2022-12-18T09:46:59;7.63;;;3.70;;
16385;SDS011;8302;51.154;4.456;2022-12-18T09:49:29;3.58;;;2.72;;
16385;SDS011;8302;51.154;4.456;2022-12-18T09:51:59;4.65;;;2.97;;
16385;SDS011;8302;51.154;4.456;2022-12-18T09:54:30;6.85;;;3.45;;
16385;SDS011;8302;51.154;4.456;2022-12-18T09:57:00;5.07;;;3.85;;
16385;SDS011;8302;51.154;4.456;2022-12-18T09:59:32;4.43;;;3.33;;
16385;SDS011;8302;51.154;4.456;2022-12-18T10:02:10;5.40;;;3.42;;
16385;SDS011;8302;51.154;4.456;2022-12-18T10:04:40;5.13;;;3.35;;
16385;SDS011;8302;51.154;4.456;2022-12-18T10:07:11;8.15;;;3.67;;
16385;SDS011;8302;51.154;4.456;2022-12-18T10:09:42;5.10;;;3.53;;
16385;SDS011;8302;51.154;4.456;2022-12-18T10:12:12;8.20;;;3.95;;
16385;SDS011;8302;51.154;4.456;2022-12-18T10:14:48;5.72;;;3.55;;
16385;SDS011;8302;51.154;4.456;2022-12-18T10:17:20;6.88;;;3.40;;
16385;SDS011;8302;51.154;4.456;2022-12-18T10:19:52;6.35;;;3.95;;
16385;SDS011;8302;51.154;4.456;2022-12-18T10:22:31;7.20;;;3.72;;
16385;SDS011;8302;51.154;4.456;2022-12-18T10:25:03;6.82;;;4.20;;
16385;SDS011;8302;51.154;4.456;2022-12-18T10:27:33;6.43;;;3.65;;
16385;SDS011;8302;51.154;4.456;2022-12-18T10:30:07;5.70;;;4.20;;
16385;SDS011;8302;51.154;4.456;2022-12-18T10:32:39;6.10;;;3.67;;
16385;SDS011;8302;51.154;4.456;2022-12-18T10:35:08;7.45;;;4.68;;
16385;SDS011;8302;51.154;4.456;2022-12-18T10:37:39;7.88;;;4.65;;
16385;SDS011;8302;51.154;4.456;2022-12-18T10:40:27;6.32;;;4.20;;
16385;SDS011;8302;51.154;4.456;2022-12-18T10:43:03;6.07;;;4.78;;
16385;SDS011;8302;51.154;4.456;2022-12-18T10:45:33;9.07;;;5.05;;
16385;SDS011;8302;51.154;4.456;2022-12-18T10:48:01;6.53;;;4.35;;
16385;SDS011;8302;51.154;4.456;2022-12-18T10:50:30;6.78;;;4.50;;
16385;SDS011;8302;51.154;4.456;2022-12-18T10:53:21;8.50;;;4.57;;
16385;SDS011;8302;51.154;4.456;2022-12-18T10:55:49;6.47;;;4.00;;
16385;SDS011;8302;51.154;4.456;2022-12-18T10:58:28;5.38;;;4.00;;
16385;SDS011;8302;51.154;4.456;2022-12-18T11:01:03;7.85;;;4.28;;
16385;SDS011;8302;51.154;4.456;2022-12-18T11:03:32;5.80;;;4.15;;
16385;SDS011;8302;51.154;4.456;2022-12-18T11:06:03;6.35;;;4.30;;
16385;SDS011;8302;51.154;4.456;2022-12-18T11:08:31;5.13;;;4.00;;
16385;SDS011;8302;51.154;4.456;2022-12-18T11:10:59;7.40;;;3.92;;
16385;SDS011;8302;51.154;4.456;2022-12-18T11:13:28;7.57;;;4.60;;
16385;SDS011;8302;51.154;4.456;2022-12-18T11:15:56;5.40;;;3.20;;
16385;SDS011;8302;51.154;4.456;2022-12-18T11:18:27;7.60;;;3.42;;
16385;SDS011;8302;51.154;4.456;2022-12-18T11:20:56;6.00;;;4.10;;
16385;SDS011;8302;51.154;4.456;2022-12-18T11:23:25;9.48;;;4.80;;
16385;SDS011;8302;51.154;4.456;2022-12-18T11:25:54;7.95;;;4.20;;
16385;SDS011;8302;51.154;4.456;2022-12-18T11:28:28;8.82;;;4.93;;
16385;SDS011;8302;51.154;4.456;2022-12-18T11:31:11;7.18;;;4.30;;
16385;SDS011;8302;51.154;4.456;2022-12-18T11:33:42;6.93;;;4.60;;
16385;SDS011;8302;51.154;4.456;2022-12-18T11:36:32;9.00;;;4.97;;
16385;SDS011;8302;51.154;4.456;2022-12-18T11:39:03;9.88;;;4.68;;
16385;SDS011;8302;51.154;4.456;2022-12-18T11:41:34;10.13;;;5.10;;
16385;SDS011;8302;51.154;4.456;2022-12-18T11:44:22;9.20;;;5.32;;
16385;SDS011;8302;51.154;4.456;2022-12-18T11:46:52;10.98;;;5.53;;
16385;SDS011;8302;51.154;4.456;2022-12-18T11:49:25;8.90;;;5.22;;
16385;SDS011;8302;51.154;4.456;2022-12-18T11:51:55;10.15;;;5.00;;
16385;SDS011;8302;51.154;4.456;2022-12-18T11:54:26;7.18;;;4.63;;
16385;SDS011;8302;51.154;4.456;2022-12-18T11:56:55;11.23;;;5.15;;
16385;SDS011;8302;51.154;4.456;2022-12-18T11:59:26;10.88;;;4.10;;
16385;SDS011;8302;51.154;4.456;2022-12-18T12:01:58;13.18;;;4.97;;
16385;SDS011;8302;51.154;4.456;2022-12-18T12:04:56;12.95;;;6.25;;
16385;SDS011;8302;51.154;4.456;2022-12-18T12:07:31;9.65;;;4.55;;
16385;SDS011;8302;51.154;4.456;2022-12-18T12:10:04;10.45;;;4.88;;
16385;SDS011;8302;51.154;4.456;2022-12-18T12:12:36;12.48;;;5.20;;
16385;SDS011;8302;51.154;4.456;2022-12-18T12:15:17;8.07;;;4.70;;
16385;SDS011;8302;51.154;4.456;2022-12-18T12:17:50;8.68;;;4.65;;
16385;SDS011;8302;51.154;4.456;2022-12-18T12:20:21;9.93;;;5.05;;
16385;SDS011;8302;51.154;4.456;2022-12-18T12:22:52;7.88;;;4.80;;
16385;SDS011;8302;51.154;4.456;2022-12-18T12:25:28;8.77;;;5.80;;
16385;SDS011;8302;51.154;4.456;2022-12-18T12:28:01;12.10;;;5.90;;
16385;SDS011;8302;51.154;4.456;2022-12-18T12:30:33;9.00;;;5.72;;
16385;SDS011;8302;51.154;4.456;2022-12-18T12:33:12;11.57;;;6.13;;
16385;SDS011;8302;51.154;4.456;2022-12-18T12:35:46;10.02;;;6.00;;
16385;SDS011;8302;51.154;4.456;2022-12-18T12:38:16;8.85;;;5.55;;
16385;SDS011;8302;51.154;4.456;2022-12-18T12:40:46;10.82;;;6.05;;
16385;SDS011;8302;51.154;4.456;2022-12-18T12:43:28;10.00;;;6.38;;
16385;SDS011;8302;51.154;4.456;2022-12-18T12:45:59;11.05;;;6.60;;
16385;SDS011;8302;51.154;4.456;2022-12-18T12:48:34;12.05;;;6.10;;
16385;SDS011;8302;51.154;4.456;2022-12-18T12:51:07;9.20;;;6.10;;
16385;SDS011;8302;51.154;4.456;2022-12-18T12:53:37;9.30;;;5.65;;
16385;SDS011;8302;51.154;4.456;2022-12-18T12:56:08;11.25;;;6.60;;
16385;SDS011;8302;51.154;4.456;2022-12-18T12:58:39;10.40;;;5.90;;
16385;SDS011;8302;51.154;4.456;2022-12-18T13:01:10;11.18;;;6.15;;
16385;SDS011;8302;51.154;4.456;2022-12-18T13:03:53;11.30;;;6.03;;
16385;SDS011;8302;51.154;4.456;2022-12-18T13:06:25;9.35;;;5.85;;
16385;SDS011;8302;51.154;4.456;2022-12-18T13:08:57;10.00;;;5.38;;
16385;SDS011;8302;51.154;4.456;2022-12-18T13:11:30;9.57;;;4.90;;
16385;SDS011;8302;51.154;4.456;2022-12-18T13:14:29;10.52;;;5.25;;
16385;SDS011;8302;51.154;4.456;2022-12-18T13:20:09;12.60;;;5.55;;
16385;SDS011;8302;51.154;4.456;2022-12-18T13:22:42;8.32;;;5.15;;
16385;SDS011;8302;51.154;4.456;2022-12-18T13:25:30;9.43;;;5.35;;
16385;SDS011;8302;51.154;4.456;2022-12-18T13:28:06;7.88;;;5.15;;
16385;SDS011;8302;51.154;4.456;2022-12-18T13:30:48;8.88;;;5.85;;
16385;SDS011;8302;51.154;4.456;2022-12-18T13:33:38;13.38;;;5.20;;
16385;SDS011;8302;51.154;4.456;2022-12-18T13:36:30;13.98;;;6.22;;
16385;SDS011;8302;51.154;4.456;2022-12-18T13:39:20;9.00;;;5.15;;
16385;SDS011;8302;51.154;4.456;2022-12-18T13:44:58;10.20;;;5.70;;
16385;SDS011;8302;51.154;4.456;2022-12-18T13:47:27;8.20;;;5.10;;
16385;SDS011;8302;51.154;4.456;2022-12-18T13:49:59;10.98;;;5.43;;
16385;SDS011;8302;51.154;4.456;2022-12-18T13:52:28;10.25;;;5.20;;
16385;SDS011;8302;51.154;4.456;2022-12-18T13:54:58;9.27;;;5.95;;
16385;SDS011;8302;51.154;4.456;2022-12-18T13:57:27;8.65;;;4.43;;
16385;SDS011;8302;51.154;4.456;2022-12-18T13:59:56;11.32;;;5.18;;
16385;SDS011;8302;51.154;4.456;2022-12-18T14:02:26;9.50;;;4.40;;
16385;SDS011;8302;51.154;4.456;2022-12-18T14:04:54;9.18;;;4.93;;
16385;SDS011;8302;51.154;4.456;2022-12-18T14:07:23;8.32;;;4.93;;
16385;SDS011;8302;51.154;4.456;2022-12-18T14:09:55;11.02;;;5.40;;
16385;SDS011;8302;51.154;4.456;2022-12-18T14:12:46;8.45;;;5.07;;
16385;SDS011;8302;51.154;4.456;2022-12-18T14:15:39;10.52;;;5.60;;
16385;SDS011;8302;51.154;4.456;2022-12-18T14:18:13;8.90;;;5.55;;
16385;SDS011;8302;51.154;4.456;2022-12-18T14:20:45;8.50;;;5.07;;
16385;SDS011;8302;51.154;4.456;2022-12-18T14:23:25;8.55;;;4.90;;
16385;SDS011;8302;51.154;4.456;2022-12-18T14:25:53;7.95;;;4.55;;
16385;SDS011;8302;51.154;4.456;2022-12-18T14:28:30;8.88;;;4.90;;
16385;SDS011;8302;51.154;4.456;2022-12-18T14:30:58;8.18;;;5.40;;
16385;SDS011;8302;51.154;4.456;2022-12-18T14:33:26;7.13;;;4.60;;
16385;SDS011;8302;51.154;4.456;2022-12-18T14:35:56;8.52;;;4.50;;
16385;SDS011;8302;51.154;4.456;2022-12-18T14:38:26;11.52;;;4.93;;
16385;SDS011;8302;51.154;4.456;2022-12-18T14:40:55;8.52;;;5.22;;
16385;SDS011;8302;51.154;4.456;2022-12-18T14:43:23;8.23;;;4.55;;
16385;SDS011;8302;51.154;4.456;2022-12-18T14:45:53;12.18;;;5.72;;
16385;SDS011;8302;51.154;4.456;2022-12-18T14:48:23;8.10;;;5.63;;
16385;SDS011;8302;51.154;4.456;2022-12-18T14:50:57;9.15;;;5.28;;
16385;SDS011;8302;51.154;4.456;2022-12-18T14:53:32;8.70;;;5.93;;
16385;SDS011;8302;51.154;4.456;2022-12-18T14:56:00;10.00;;;5.25;;
16385;SDS011;8302;51.154;4.456;2022-12-18T14:58:29;8.63;;;5.80;;
16385;SDS011;8302;51.154;4.456;2022-12-18T15:00:58;10.27;;;6.18;;
16385;SDS011;8302;51.154;4.456;2022-12-18T15:03:26;9.02;;;5.63;;
16385;SDS011;8302;51.154;4.456;2022-12-18T15:05:54;7.38;;;4.95;;
16385;SDS011;8302;51.154;4.456;2022-12-18T15:08:31;11.13;;;6.47;;
16385;SDS011;8302;51.154;4.456;2022-12-18T15:11:02;10.00;;;5.80;;
16385;SDS011;8302;51.154;4.456;2022-12-18T15:13:37;10.18;;;5.97;;
16385;SDS011;8302;51.154;4.456;2022-12-18T15:16:07;9.60;;;5.60;;
16385;SDS011;8302;51.154;4.456;2022-12-18T15:18:41;7.22;;;5.45;;
16385;SDS011;8302;51.154;4.456;2022-12-18T15:21:10;10.75;;;5.90;;
16385;SDS011;8302;51.154;4.456;2022-12-18T15:23:45;8.45;;;5.43;;
16385;SDS011;8302;51.154;4.456;2022-12-18T15:26:14;7.88;;;4.88;;